sensor_id;sensor_type;location;lat;lon;timestamp;P1;durP1;ratioP1;P2;durP2;ratioP2
37777;SDS011;23615;51.506;7.678;2023-03-01T00:00:39;4.97;;;4.47;;
37777;SDS011;23615;51.506;7.678;2023-03-01T00:03:04;5.60;;;5.00;;
37777;SDS011;23615;51.506;7.678;2023-03-01T00:05:29;5.77;;;5.00;;
37777;SDS011;23615;51.506;7.678;2023-03-01T00:07:55;5.17;;;4.67;;
37777;SDS011;23615;51.506;7.678;2023-03-01T00:10:20;4.70;;;4.27;;
37777;SDS011;23615;51.506;7.678;2023-03-01T00:12:45;5.00;;;4.40;;
37777;SDS011;23615;51.506;7.678;2023-03-01T00:15:11;5.47;;;4.83;;
37777;SDS011;23615;51.506;7.678;2023-03-01T00:17:36;5.40;;;4.85;;
37777;SDS011;23615;51.506;7.678;2023-03-01T00:20:02;5.20;;;4.67;;
37777;SDS011;23615;51.506;7.678;2023-03-01T00:22:28;6.18;;;5.55;;
37777;SDS011;23615;51.506;7.678;2023-03-01T00:24:53;5.53;;;4.93;;
37777;SDS011;23615;51.506;7.678;2023-03-01T00:27:19;5.70;;;4.60;;
37777;SDS011;23615;51.506;7.678;2023-03-01T00:29:44;5.07;;;4.50;;
37777;SDS011;23615;51.506;7.678;2023-03-01T00:32:09;6.53;;;5.17;;
37777;SDS011;23615;51.506;7.678;2023-03-01T00:34:35;5.17;;;4.33;;
37777;SDS011;23615;51.506;7.678;2023-03-01T00:37:00;5.23;;;4.50;;
37777;SDS011;23615;51.506;7.678;2023-03-01T00:39:30;4.82;;;4.38;;
37777;SDS011;23615;51.506;7.678;2023-03-01T00:41:56;5.97;;;5.38;;
37777;SDS011;23615;51.506;7.678;2023-03-01T00:44:22;5.23;;;4.67;;
37777;SDS011;23615;51.506;7.678;2023-03-01T00:46:47;4.77;;;4.10;;
37777;SDS011;23615;51.506;7.678;2023-03-01T00:49:12;4.33;;;3.93;;
37777;SDS011;23615;51.506;7.678;2023-03-01T00:51:38;5.28;;;4.78;;
37777;SDS011;23615;51.506;7.678;2023-03-01T00:54:07;5.88;;;4.80;;
37777;SDS011;23615;51.506;7.678;2023-03-01T00:56:33;5.82;;;4.70;;
37777;SDS011;23615;51.506;7.678;2023-03-01T00:58:58;6.07;;;5.47;;
37777;SDS011;23615;51.506;7.678;2023-03-01T01:01:25;5.68;;;4.85;;
37777;SDS011;23615;51.506;7.678;2023-03-01T01:04:05;5.15;;;4.65;;
37777;SDS011;23615;51.506;7.678;2023-03-01T01:06:33;5.38;;;4.88;;
37777;SDS011;23615;51.506;7.678;2023-03-01T01:09:00;5.32;;;4.50;;
37777;SDS011;23615;51.506;7.678;2023-03-01T01:11:28;5.55;;;5.05;;
37777;SDS011;23615;51.506;7.678;2023-03-01T01:13:54;5.38;;;4.70;;
37777;SDS011;23615;51.506;7.678;2023-03-01T01:16:20;5.73;;;4.57;;
37777;SDS011;23615;51.506;7.678;2023-03-01T01:18:47;5.13;;;4.63;;
37777;SDS011;23615;51.506;7.678;2023-03-01T01:21:14;6.37;;;5.13;;
37777;SDS011;23615;51.506;7.678;2023-03-01T01:23:43;5.38;;;4.55;;
37777;SDS011;23615;51.506;7.678;2023-03-01T01:26:11;5.70;;;5.10;;
37777;SDS011;23615;51.506;7.678;2023-03-01T01:28:39;6.18;;;5.50;;
37777;SDS011;23615;51.506;7.678;2023-03-01T01:31:05;6.07;;;5.13;;
37777;SDS011;23615;51.506;7.678;2023-03-01T01:33:31;5.60;;;5.00;;
37777;SDS011;23615;51.506;7.678;2023-03-01T01:35:56;5.40;;;4.90;;
37777;SDS011;23615;51.506;7.678;2023-03-01T01:38:22;5.30;;;4.80;;
37777;SDS011;23615;51.506;7.678;2023-03-01T01:40:48;5.43;;;4.93;;
37777;SDS011;23615;51.506;7.678;2023-03-01T01:43:16;5.72;;;4.57;;
37777;SDS011;23615;51.506;7.678;2023-03-01T01:45:45;5.97;;;5.38;;
37777;SDS011;23615;51.506;7.678;2023-03-01T01:48:12;5.23;;;4.70;;
37777;SDS011;23615;51.506;7.678;2023-03-01T01:50:41;5.88;;;5.20;;
37777;SDS011;23615;51.506;7.678;2023-03-01T01:53:10;6.82;;;5.25;;
37777;SDS011;23615;51.506;7.678;2023-03-01T01:55:40;6.13;;;5.53;;
37777;SDS011;23615;51.506;7.678;2023-03-01T01:58:08;5.80;;;5.23;;
37777;SDS011;23615;51.506;7.678;2023-03-01T02:00:35;5.70;;;5.18;;
37777;SDS011;23615;51.506;7.678;2023-03-01T02:03:07;5.60;;;4.60;;
37777;SDS011;23615;51.506;7.678;2023-03-01T02:05:43;5.10;;;4.60;;
37777;SDS011;23615;51.506;7.678;2023-03-01T02:08:15;5.97;;;5.10;;
37777;SDS011;23615;51.506;7.678;2023-03-01T02:10:43;6.38;;;5.68;;
37777;SDS011;23615;51.506;7.678;2023-03-01T02:13:11;6.40;;;5.20;;
37777;SDS011;23615;51.506;7.678;2023-03-01T02:15:37;6.47;;;5.30;;
37777;SDS011;23615;51.506;7.678;2023-03-01T02:18:04;6.57;;;5.78;;
37777;SDS011;23615;51.506;7.678;2023-03-01T02:23:30;6.85;;;6.15;;
37777;SDS011;23615;51.506;7.678;2023-03-01T02:25:58;6.93;;;5.40;;
37777;SDS011;23615;51.506;7.678;2023-03-01T02:28:35;7.18;;;6.00;;
37777;SDS011;23615;51.506;7.678;2023-03-01T02:31:03;6.25;;;5.53;;
37777;SDS011;23615;51.506;7.678;2023-03-01T02:33:50;6.27;;;5.67;;
37777;SDS011;23615;51.506;7.678;2023-03-01T02:36:20;6.18;;;5.45;;
37777;SDS011;23615;51.506;7.678;2023-03-01T02:38:50;6.55;;;5.65;;
37777;SDS011;23615;51.506;7.678;2023-03-01T02:41:18;6.07;;;5.47;;
37777;SDS011;23615;51.506;7.678;2023-03-01T02:43:45;6.30;;;5.68;;
37777;SDS011;23615;51.506;7.678;2023-03-01T02:46:17;7.03;;;6.00;;
37777;SDS011;23615;51.506;7.678;2023-03-01T02:48:49;6.23;;;5.33;;
37777;SDS011;23615;51.506;7.678;2023-03-01T02:51:23;5.35;;;4.80;;
37777;SDS011;23615;51.506;7.678;2023-03-01T02:56:50;6.10;;;5.38;;
37777;SDS011;23615;51.506;7.678;2023-03-01T02:59:18;5.95;;;5.35;;
37777;SDS011;23615;51.506;7.678;2023-03-01T03:01:45;5.95;;;5.30;;
37777;SDS011;23615;51.506;7.678;2023-03-01T03:04:16;5.33;;;4.83;;
37777;SDS011;23615;51.506;7.678;2023-03-01T03:06:43;5.80;;;4.85;;
37777;SDS011;23615;51.506;7.678;2023-03-01T03:09:09;5.78;;;5.18;;
37777;SDS011;23615;51.506;7.678;2023-03-01T03:11:36;6.05;;;5.45;;
37777;SDS011;23615;51.506;7.678;2023-03-01T03:14:02;5.13;;;4.63;;
37777;SDS011;23615;51.506;7.678;2023-03-01T03:16:28;5.05;;;4.55;;
37777;SDS011;23615;51.506;7.678;2023-03-01T03:18:54;5.45;;;4.53;;
37777;SDS011;23615;51.506;7.678;2023-03-01T03:21:20;5.40;;;4.90;;
37777;SDS011;23615;51.506;7.678;2023-03-01T03:23:45;4.75;;;4.18;;
37777;SDS011;23615;51.506;7.678;2023-03-01T03:26:10;5.80;;;5.20;;
37777;SDS011;23615;51.506;7.678;2023-03-01T03:28:38;5.63;;;5.03;;
37777;SDS011;23615;51.506;7.678;2023-03-01T03:31:05;6.15;;;5.55;;
37777;SDS011;23615;51.506;7.678;2023-03-01T03:33:31;6.05;;;5.45;;
37777;SDS011;23615;51.506;7.678;2023-03-01T03:35:57;6.22;;;4.95;;
37777;SDS011;23615;51.506;7.678;2023-03-01T03:38:23;6.10;;;5.53;;
37777;SDS011;23615;51.506;7.678;2023-03-01T03:40:49;5.88;;;4.70;;
37777;SDS011;23615;51.506;7.678;2023-03-01T03:43:18;5.37;;;4.83;;
37777;SDS011;23615;51.506;7.678;2023-03-01T03:45:45;5.38;;;4.88;;
37777;SDS011;23615;51.506;7.678;2023-03-01T03:48:11;5.60;;;4.75;;
37777;SDS011;23615;51.506;7.678;2023-03-01T03:50:37;5.93;;;5.07;;
37777;SDS011;23615;51.506;7.678;2023-03-01T03:53:05;5.93;;;4.97;;
37777;SDS011;23615;51.506;7.678;2023-03-01T03:55:32;5.22;;;4.63;;
37777;SDS011;23615;51.506;7.678;2023-03-01T03:57:58;5.65;;;5.10;;
37777;SDS011;23615;51.506;7.678;2023-03-01T04:00:31;5.40;;;4.90;;
37777;SDS011;23615;51.506;7.678;2023-03-01T04:03:00;5.35;;;4.85;;
37777;SDS011;23615;51.506;7.678;2023-03-01T04:05:25;4.95;;;4.38;;
37777;SDS011;23615;51.506;7.678;2023-03-01T04:07:51;5.70;;;5.10;;
37777;SDS011;23615;51.506;7.678;2023-03-01T04:10:26;5.13;;;4.53;;
37777;SDS011;23615;51.506;7.678;2023-03-01T04:12:52;6.30;;;4.90;;
37777;SDS011;23615;51.506;7.678;2023-03-01T04:15:17;5.10;;;4.60;;
37777;SDS011;23615;51.506;7.678;2023-03-01T04:17:44;5.18;;;4.60;;
37777;SDS011;23615;51.506;7.678;2023-03-01T04:20:12;6.45;;;4.72;;
37777;SDS011;23615;51.506;7.678;2023-03-01T04:22:42;7.55;;;6.25;;
37777;SDS011;23615;51.506;7.678;2023-03-01T04:25:11;6.85;;;5.82;;
37777;SDS011;23615;51.506;7.678;2023-03-01T04:27:39;5.90;;;5.30;;
37777;SDS011;23615;51.506;7.678;2023-03-01T04:30:05;6.03;;;5.32;;
37777;SDS011;23615;51.506;7.678;2023-03-01T04:32:31;6.47;;;5.22;;
37777;SDS011;23615;51.506;7.678;2023-03-01T04:34:56;5.80;;;5.00;;
37777;SDS011;23615;51.506;7.678;2023-03-01T04:37:23;5.80;;;5.20;;
37777;SDS011;23615;51.506;7.678;2023-03-01T04:39:49;5.78;;;5.18;;
37777;SDS011;23615;51.506;7.678;2023-03-01T04:42:15;6.70;;;5.33;;
37777;SDS011;23615;51.506;7.678;2023-03-01T04:44:41;6.57;;;5.97;;
37777;SDS011;23615;51.506;7.678;2023-03-01T04:47:07;5.57;;;5.03;;
37777;SDS011;23615;51.506;7.678;2023-03-01T04:49:32;6.03;;;5.43;;
37777;SDS011;23615;51.506;7.678;2023-03-01T04:51:58;6.10;;;5.27;;
37777;SDS011;23615;51.506;7.678;2023-03-01T04:54:26;5.37;;;4.77;;
37777;SDS011;23615;51.506;7.678;2023-03-01T04:56:52;6.40;;;5.10;;
37777;SDS011;23615;51.506;7.678;2023-03-01T04:59:17;5.70;;;4.83;;
37777;SDS011;23615;51.506;7.678;2023-03-01T05:01:43;5.63;;;5.00;;
37777;SDS011;23615;51.506;7.678;2023-03-01T05:04:08;5.90;;;4.90;;
37777;SDS011;23615;51.506;7.678;2023-03-01T05:06:38;5.15;;;4.60;;
37777;SDS011;23615;51.506;7.678;2023-03-01T05:09:03;5.87;;;5.27;;
37777;SDS011;23615;51.506;7.678;2023-03-01T05:11:28;6.00;;;4.93;;
37777;SDS011;23615;51.506;7.678;2023-03-01T05:13:58;5.90;;;5.23;;
37777;SDS011;23615;51.506;7.678;2023-03-01T05:16:24;5.90;;;5.30;;
37777;SDS011;23615;51.506;7.678;2023-03-01T05:18:49;7.43;;;6.70;;
37777;SDS011;23615;51.506;7.678;2023-03-01T05:21:16;9.10;;;7.07;;
37777;SDS011;23615;51.506;7.678;2023-03-01T05:23:41;7.68;;;6.82;;
37777;SDS011;23615;51.506;7.678;2023-03-01T05:26:07;7.50;;;6.33;;
37777;SDS011;23615;51.506;7.678;2023-03-01T05:28:33;6.75;;;6.15;;
37777;SDS011;23615;51.506;7.678;2023-03-01T05:30:58;6.00;;;5.40;;
37777;SDS011;23615;51.506;7.678;2023-03-01T05:33:24;6.78;;;5.40;;
37777;SDS011;23615;51.506;7.678;2023-03-01T05:35:50;6.47;;;5.35;;
37777;SDS011;23615;51.506;7.678;2023-03-01T05:38:17;6.05;;;5.45;;
37777;SDS011;23615;51.506;7.678;2023-03-01T05:40:43;6.87;;;5.57;;
37777;SDS011;23615;51.506;7.678;2023-03-01T05:43:11;5.77;;;5.23;;
37777;SDS011;23615;51.506;7.678;2023-03-01T05:45:37;5.57;;;5.07;;
37777;SDS011;23615;51.506;7.678;2023-03-01T05:48:04;6.07;;;5.43;;
37777;SDS011;23615;51.506;7.678;2023-03-01T05:50:37;5.95;;;5.38;;
37777;SDS011;23615;51.506;7.678;2023-03-01T05:53:06;6.13;;;5.53;;
37777;SDS011;23615;51.506;7.678;2023-03-01T05:55:34;6.43;;;5.45;;
37777;SDS011;23615;51.506;7.678;2023-03-01T05:58:01;6.88;;;5.78;;
37777;SDS011;23615;51.506;7.678;2023-03-01T06:00:28;6.60;;;5.90;;
37777;SDS011;23615;51.506;7.678;2023-03-01T06:02:54;6.32;;;5.40;;
37777;SDS011;23615;51.506;7.678;2023-03-01T06:05:21;7.70;;;6.90;;
37777;SDS011;23615;51.506;7.678;2023-03-01T06:07:47;8.65;;;7.20;;
37777;SDS011;23615;51.506;7.678;2023-03-01T06:10:13;7.88;;;6.30;;
37777;SDS011;23615;51.506;7.678;2023-03-01T06:12:39;6.43;;;5.82;;
37777;SDS011;23615;51.506;7.678;2023-03-01T06:15:06;7.27;;;6.57;;
37777;SDS011;23615;51.506;7.678;2023-03-01T06:17:35;6.37;;;5.77;;
37777;SDS011;23615;51.506;7.678;2023-03-01T06:20:03;6.88;;;5.45;;
37777;SDS011;23615;51.506;7.678;2023-03-01T06:22:34;6.73;;;5.60;;
37777;SDS011;23615;51.506;7.678;2023-03-01T06:24:59;6.53;;;5.85;;
37777;SDS011;23615;51.506;7.678;2023-03-01T06:27:24;5.73;;;5.17;;
37777;SDS011;23615;51.506;7.678;2023-03-01T06:29:49;7.30;;;6.03;;
37777;SDS011;23615;51.506;7.678;2023-03-01T06:32:15;6.23;;;5.60;;
37777;SDS011;23615;51.506;7.678;2023-03-01T06:34:40;6.07;;;5.47;;
37777;SDS011;23615;51.506;7.678;2023-03-01T06:37:06;7.63;;;6.83;;
37777;SDS011;23615;51.506;7.678;2023-03-01T06:39:32;6.83;;;6.07;;
37777;SDS011;23615;51.506;7.678;2023-03-01T06:41:58;7.80;;;6.88;;
37777;SDS011;23615;51.506;7.678;2023-03-01T06:44:23;8.68;;;6.78;;
37777;SDS011;23615;51.506;7.678;2023-03-01T06:46:49;7.87;;;6.37;;
37777;SDS011;23615;51.506;7.678;2023-03-01T06:49:14;8.30;;;5.97;;
37777;SDS011;23615;51.506;7.678;2023-03-01T06:51:41;6.68;;;5.97;;
37777;SDS011;23615;51.506;7.678;2023-03-01T06:54:06;8.82;;;7.15;;
37777;SDS011;23615;51.506;7.678;2023-03-01T06:56:32;7.80;;;6.80;;
37777;SDS011;23615;51.506;7.678;2023-03-01T06:58:57;7.70;;;6.47;;
37777;SDS011;23615;51.506;7.678;2023-03-01T07:01:23;8.32;;;6.30;;
37777;SDS011;23615;51.506;7.678;2023-03-01T07:03:48;7.00;;;6.30;;
37777;SDS011;23615;51.506;7.678;2023-03-01T07:06:14;6.37;;;5.60;;
37777;SDS011;23615;51.506;7.678;2023-03-01T07:08:39;7.03;;;5.47;;
37777;SDS011;23615;51.506;7.678;2023-03-01T07:11:04;7.20;;;5.93;;
37777;SDS011;23615;51.506;7.678;2023-03-01T07:13:30;6.85;;;5.72;;
37777;SDS011;23615;51.506;7.678;2023-03-01T07:15:56;8.35;;;6.50;;
37777;SDS011;23615;51.506;7.678;2023-03-01T07:18:21;6.60;;;5.90;;
37777;SDS011;23615;51.506;7.678;2023-03-01T07:20:47;11.70;;;9.53;;
37777;SDS011;23615;51.506;7.678;2023-03-01T07:23:12;9.07;;;7.93;;
37777;SDS011;23615;51.506;7.678;2023-03-01T07:25:37;7.70;;;6.80;;
37777;SDS011;23615;51.506;7.678;2023-03-01T07:28:03;7.93;;;6.67;;
37777;SDS011;23615;51.506;7.678;2023-03-01T07:30:28;6.90;;;6.20;;
37777;SDS011;23615;51.506;7.678;2023-03-01T07:32:54;8.23;;;7.10;;
37777;SDS011;23615;51.506;7.678;2023-03-01T07:35:20;6.97;;;6.28;;
37777;SDS011;23615;51.506;7.678;2023-03-01T07:37:46;6.90;;;6.05;;
37777;SDS011;23615;51.506;7.678;2023-03-01T07:40:12;6.30;;;5.70;;
37777;SDS011;23615;51.506;7.678;2023-03-01T07:42:38;6.70;;;5.63;;
37777;SDS011;23615;51.506;7.678;2023-03-01T07:45:03;5.40;;;4.90;;
37777;SDS011;23615;51.506;7.678;2023-03-01T07:47:30;7.07;;;5.70;;
37777;SDS011;23615;51.506;7.678;2023-03-01T07:49:56;5.27;;;4.77;;
37777;SDS011;23615;51.506;7.678;2023-03-01T07:52:21;7.47;;;5.60;;
37777;SDS011;23615;51.506;7.678;2023-03-01T07:54:46;6.90;;;6.20;;
37777;SDS011;23615;51.506;7.678;2023-03-01T07:57:11;8.20;;;6.50;;
37777;SDS011;23615;51.506;7.678;2023-03-01T07:59:37;6.60;;;5.87;;
37777;SDS011;23615;51.506;7.678;2023-03-01T08:02:02;6.43;;;5.75;;
37777;SDS011;23615;51.506;7.678;2023-03-01T08:04:27;6.57;;;5.80;;
37777;SDS011;23615;51.506;7.678;2023-03-01T08:06:53;6.70;;;6.00;;
37777;SDS011;23615;51.506;7.678;2023-03-01T08:09:21;9.35;;;7.28;;
37777;SDS011;23615;51.506;7.678;2023-03-01T08:11:46;13.00;;;7.17;;
37777;SDS011;23615;51.506;7.678;2023-03-01T08:14:12;9.40;;;6.77;;
37777;SDS011;23615;51.506;7.678;2023-03-01T08:16:37;8.13;;;7.00;;
37777;SDS011;23615;51.506;7.678;2023-03-01T08:19:06;7.57;;;6.78;;
37777;SDS011;23615;51.506;7.678;2023-03-01T08:21:36;8.85;;;7.18;;
37777;SDS011;23615;51.506;7.678;2023-03-01T08:24:03;6.97;;;6.13;;
37777;SDS011;23615;51.506;7.678;2023-03-01T08:26:30;9.07;;;6.28;;
37777;SDS011;23615;51.506;7.678;2023-03-01T08:28:56;8.20;;;6.93;;
37777;SDS011;23615;51.506;7.678;2023-03-01T08:31:22;7.10;;;5.97;;
37777;SDS011;23615;51.506;7.678;2023-03-01T08:33:51;8.48;;;7.38;;
37777;SDS011;23615;51.506;7.678;2023-03-01T08:36:24;7.53;;;6.57;;
37777;SDS011;23615;51.506;7.678;2023-03-01T08:38:51;8.48;;;6.63;;
37777;SDS011;23615;51.506;7.678;2023-03-01T08:41:17;9.00;;;8.05;;
37777;SDS011;23615;51.506;7.678;2023-03-01T08:43:42;9.53;;;7.80;;
37777;SDS011;23615;51.506;7.678;2023-03-01T08:46:08;7.63;;;6.80;;
37777;SDS011;23615;51.506;7.678;2023-03-01T08:48:34;8.43;;;6.70;;
37777;SDS011;23615;51.506;7.678;2023-03-01T08:51:09;8.63;;;6.37;;
37777;SDS011;23615;51.506;7.678;2023-03-01T08:53:42;9.02;;;7.68;;
37777;SDS011;23615;51.506;7.678;2023-03-01T08:56:08;8.80;;;6.72;;
37777;SDS011;23615;51.506;7.678;2023-03-01T08:58:34;7.75;;;6.95;;
37777;SDS011;23615;51.506;7.678;2023-03-01T09:00:59;9.85;;;7.00;;
37777;SDS011;23615;51.506;7.678;2023-03-01T09:03:25;9.30;;;7.43;;
37777;SDS011;23615;51.506;7.678;2023-03-01T09:05:51;9.57;;;7.18;;
37777;SDS011;23615;51.506;7.678;2023-03-01T09:08:18;7.68;;;6.60;;
37777;SDS011;23615;51.506;7.678;2023-03-01T09:10:44;8.40;;;7.03;;
37777;SDS011;23615;51.506;7.678;2023-03-01T09:13:10;9.32;;;7.13;;
37777;SDS011;23615;51.506;7.678;2023-03-01T09:15:38;7.80;;;6.37;;
37777;SDS011;23615;51.506;7.678;2023-03-01T09:18:04;7.15;;;6.45;;
37777;SDS011;23615;51.506;7.678;2023-03-01T09:20:30;7.45;;;6.50;;
37777;SDS011;23615;51.506;7.678;2023-03-01T09:22:56;6.93;;;5.93;;
37777;SDS011;23615;51.506;7.678;2023-03-01T09:25:22;6.50;;;5.80;;
37777;SDS011;23615;51.506;7.678;2023-03-01T09:27:47;7.28;;;6.00;;
37777;SDS011;23615;51.506;7.678;2023-03-01T09:30:15;7.63;;;6.23;;
37777;SDS011;23615;51.506;7.678;2023-03-01T09:32:41;6.47;;;5.65;;
37777;SDS011;23615;51.506;7.678;2023-03-01T09:35:07;7.72;;;6.38;;
37777;SDS011;23615;51.506;7.678;2023-03-01T09:37:34;8.07;;;6.85;;
37777;SDS011;23615;51.506;7.678;2023-03-01T09:40:00;6.53;;;5.93;;
37777;SDS011;23615;51.506;7.678;2023-03-01T09:42:27;7.65;;;6.88;;
37777;SDS011;23615;51.506;7.678;2023-03-01T09:44:57;9.10;;;6.90;;
37777;SDS011;23615;51.506;7.678;2023-03-01T09:47:29;8.02;;;6.43;;
37777;SDS011;23615;51.506;7.678;2023-03-01T09:50:11;7.37;;;6.40;;
37777;SDS011;23615;51.506;7.678;2023-03-01T09:52:42;8.07;;;6.67;;
37777;SDS011;23615;51.506;7.678;2023-03-01T09:58:25;6.07;;;5.43;;
37777;SDS011;23615;51.506;7.678;2023-03-01T10:03:58;7.35;;;6.18;;
37777;SDS011;23615;51.506;7.678;2023-03-01T10:06:48;7.38;;;5.75;;
37777;SDS011;23615;51.506;7.678;2023-03-01T10:09:20;6.40;;;5.47;;
37777;SDS011;23615;51.506;7.678;2023-03-01T10:11:50;7.47;;;5.80;;
37777;SDS011;23615;51.506;7.678;2023-03-01T10:17:03;6.43;;;5.25;;
37777;SDS011;23615;51.506;7.678;2023-03-01T10:19:40;5.72;;;5.20;;
37777;SDS011;23615;51.506;7.678;2023-03-01T10:22:17;9.52;;;7.30;;
37777;SDS011;23615;51.506;7.678;2023-03-01T10:24:46;7.60;;;5.50;;
37777;SDS011;23615;51.506;7.678;2023-03-01T10:27:16;6.40;;;5.43;;
37777;SDS011;23615;51.506;7.678;2023-03-01T10:30:11;5.32;;;4.82;;
37777;SDS011;23615;51.506;7.678;2023-03-01T10:32:41;7.28;;;5.57;;
37777;SDS011;23615;51.506;7.678;2023-03-01T10:35:15;6.68;;;5.60;;
37777;SDS011;23615;51.506;7.678;2023-03-01T10:38:05;7.30;;;5.10;;
37777;SDS011;23615;51.506;7.678;2023-03-01T10:40:35;5.78;;;4.93;;
37777;SDS011;23615;51.506;7.678;2023-03-01T10:43:14;7.97;;;5.93;;
37777;SDS011;23615;51.506;7.678;2023-03-01T10:45:39;6.50;;;5.63;;
37777;SDS011;23615;51.506;7.678;2023-03-01T10:50:33;8.35;;;5.25;;
37777;SDS011;23615;51.506;7.678;2023-03-01T10:53:00;6.80;;;5.77;;
37777;SDS011;23615;51.506;7.678;2023-03-01T11:00:48;6.57;;;5.73;;
37777;SDS011;23615;51.506;7.678;2023-03-01T11:03:34;6.38;;;5.43;;
37777;SDS011;23615;51.506;7.678;2023-03-01T11:11:30;6.25;;;5.07;;
37777;SDS011;23615;51.506;7.678;2023-03-01T11:14:07;5.93;;;5.15;;
37777;SDS011;23615;51.506;7.678;2023-03-01T11:16:39;8.75;;;5.82;;
37777;SDS011;23615;51.506;7.678;2023-03-01T11:21:42;6.97;;;5.10;;
37777;SDS011;23615;51.506;7.678;2023-03-01T11:24:12;6.07;;;4.95;;
37777;SDS011;23615;51.506;7.678;2023-03-01T11:26:41;7.75;;;5.28;;
37777;SDS011;23615;51.506;7.678;2023-03-01T11:29:16;6.90;;;5.60;;
37777;SDS011;23615;51.506;7.678;2023-03-01T11:31:50;5.93;;;5.07;;
37777;SDS011;23615;51.506;7.678;2023-03-01T11:34:19;5.73;;;5.00;;
37777;SDS011;23615;51.506;7.678;2023-03-01T11:36:59;6.03;;;4.93;;
37777;SDS011;23615;51.506;7.678;2023-03-01T11:39:38;6.50;;;4.93;;
37777;SDS011;23615;51.506;7.678;2023-03-01T11:45:08;6.78;;;5.13;;
37777;SDS011;23615;51.506;7.678;2023-03-01T11:50:49;6.18;;;5.57;;
37777;SDS011;23615;51.506;7.678;2023-03-01T11:56:03;5.75;;;5.07;;
37777;SDS011;23615;51.506;7.678;2023-03-01T12:07:00;8.10;;;5.65;;
37777;SDS011;23615;51.506;7.678;2023-03-01T12:09:30;6.72;;;5.20;;
37777;SDS011;23615;51.506;7.678;2023-03-01T12:15:00;7.15;;;5.38;;
37777;SDS011;23615;51.506;7.678;2023-03-01T12:20:58;6.68;;;5.03;;
37777;SDS011;23615;51.506;7.678;2023-03-01T12:29:44;6.18;;;5.20;;
37777;SDS011;23615;51.506;7.678;2023-03-01T12:40:39;8.18;;;5.35;;
37777;SDS011;23615;51.506;7.678;2023-03-01T12:49:06;6.60;;;4.63;;
37777;SDS011;23615;51.506;7.678;2023-03-01T12:51:35;6.30;;;5.40;;
37777;SDS011;23615;51.506;7.678;2023-03-01T12:54:10;6.37;;;4.67;;
37777;SDS011;23615;51.506;7.678;2023-03-01T12:56:40;5.60;;;4.65;;
37777;SDS011;23615;51.506;7.678;2023-03-01T13:01:59;7.80;;;5.70;;
37777;SDS011;23615;51.506;7.678;2023-03-01T13:04:35;5.57;;;4.63;;
37777;SDS011;23615;51.506;7.678;2023-03-01T13:07:41;5.93;;;4.77;;
37777;SDS011;23615;51.506;7.678;2023-03-01T13:17:49;5.83;;;4.33;;
37777;SDS011;23615;51.506;7.678;2023-03-01T13:20:18;7.90;;;4.40;;
37777;SDS011;23615;51.506;7.678;2023-03-01T13:22:46;5.07;;;4.13;;
37777;SDS011;23615;51.506;7.678;2023-03-01T13:25:16;6.22;;;4.30;;
37777;SDS011;23615;51.506;7.678;2023-03-01T13:27:45;5.32;;;4.20;;
37777;SDS011;23615;51.506;7.678;2023-03-01T13:35:52;9.38;;;4.57;;
37777;SDS011;23615;51.506;7.678;2023-03-01T13:46:43;5.25;;;3.80;;
37777;SDS011;23615;51.506;7.678;2023-03-01T13:49:11;5.75;;;3.58;;
37777;SDS011;23615;51.506;7.678;2023-03-01T13:51:41;3.90;;;3.50;;
37777;SDS011;23615;51.506;7.678;2023-03-01T13:54:09;5.60;;;4.07;;
37777;SDS011;23615;51.506;7.678;2023-03-01T13:56:37;3.97;;;3.33;;
37777;SDS011;23615;51.506;7.678;2023-03-01T13:59:13;7.50;;;4.75;;
37777;SDS011;23615;51.506;7.678;2023-03-01T14:01:41;10.85;;;4.78;;
37777;SDS011;23615;51.506;7.678;2023-03-01T14:04:23;5.33;;;3.77;;
37777;SDS011;23615;51.506;7.678;2023-03-01T14:06:50;5.90;;;3.87;;
37777;SDS011;23615;51.506;7.678;2023-03-01T14:20:39;4.43;;;3.57;;
37777;SDS011;23615;51.506;7.678;2023-03-01T14:23:17;5.05;;;3.50;;
37777;SDS011;23615;51.506;7.678;2023-03-01T14:25:52;4.07;;;3.53;;
37777;SDS011;23615;51.506;7.678;2023-03-01T14:28:26;4.00;;;3.60;;
37777;SDS011;23615;51.506;7.678;2023-03-01T14:30:57;4.85;;;3.85;;
37777;SDS011;23615;51.506;7.678;2023-03-01T14:33:28;4.28;;;3.85;;
37777;SDS011;23615;51.506;7.678;2023-03-01T14:36:00;4.20;;;3.35;;
37777;SDS011;23615;51.506;7.678;2023-03-01T14:38:44;4.05;;;3.63;;
37777;SDS011;23615;51.506;7.678;2023-03-01T14:41:13;4.55;;;3.45;;
37777;SDS011;23615;51.506;7.678;2023-03-01T14:43:41;4.50;;;3.87;;
37777;SDS011;23615;51.506;7.678;2023-03-01T14:48:43;5.18;;;3.75;;
37777;SDS011;23615;51.506;7.678;2023-03-01T14:51:09;5.37;;;3.63;;
37777;SDS011;23615;51.506;7.678;2023-03-01T14:53:37;3.83;;;3.33;;
37777;SDS011;23615;51.506;7.678;2023-03-01T14:56:02;4.03;;;3.20;;
37777;SDS011;23615;51.506;7.678;2023-03-01T14:58:28;3.40;;;3.10;;
37777;SDS011;23615;51.506;7.678;2023-03-01T15:05:52;5.15;;;4.25;;
37777;SDS011;23615;51.506;7.678;2023-03-01T15:08:23;3.70;;;3.27;;
37777;SDS011;23615;51.506;7.678;2023-03-01T15:11:50;4.53;;;4.03;;
37777;SDS011;23615;51.506;7.678;2023-03-01T15:13:49;3.92;;;3.60;;
37777;SDS011;23615;51.506;7.678;2023-03-01T15:16:20;4.80;;;3.75;;
37777;SDS011;23615;51.506;7.678;2023-03-01T15:18:53;4.38;;;3.60;;
37777;SDS011;23615;51.506;7.678;2023-03-01T15:24:00;4.40;;;3.50;;
37777;SDS011;23615;51.506;7.678;2023-03-01T15:26:53;5.10;;;3.83;;
37777;SDS011;23615;51.506;7.678;2023-03-01T15:29:26;4.85;;;3.38;;
37777;SDS011;23615;51.506;7.678;2023-03-01T15:31:58;4.00;;;3.17;;
37777;SDS011;23615;51.506;7.678;2023-03-01T15:34:44;4.53;;;3.43;;
37777;SDS011;23615;51.506;7.678;2023-03-01T15:37:35;4.63;;;3.40;;
37777;SDS011;23615;51.506;7.678;2023-03-01T15:40:19;4.68;;;3.67;;
37777;SDS011;23615;51.506;7.678;2023-03-01T15:42:46;3.65;;;3.30;;
37777;SDS011;23615;51.506;7.678;2023-03-01T15:47:58;4.20;;;3.23;;
37777;SDS011;23615;51.506;7.678;2023-03-01T15:50:30;4.88;;;3.53;;
37777;SDS011;23615;51.506;7.678;2023-03-01T15:53:00;3.75;;;2.72;;
37777;SDS011;23615;51.506;7.678;2023-03-01T15:55:31;3.53;;;3.17;;
37777;SDS011;23615;51.506;7.678;2023-03-01T15:57:59;3.53;;;2.88;;
37777;SDS011;23615;51.506;7.678;2023-03-01T16:00:27;3.53;;;2.80;;
37777;SDS011;23615;51.506;7.678;2023-03-01T16:02:54;3.78;;;3.00;;
37777;SDS011;23615;51.506;7.678;2023-03-01T16:05:21;4.87;;;3.60;;
37777;SDS011;23615;51.506;7.678;2023-03-01T16:07:48;4.22;;;3.40;;
37777;SDS011;23615;51.506;7.678;2023-03-01T16:10:14;4.35;;;3.42;;
37777;SDS011;23615;51.506;7.678;2023-03-01T16:12:39;4.10;;;3.63;;
37777;SDS011;23615;51.506;7.678;2023-03-01T16:15:08;3.60;;;3.13;;
37777;SDS011;23615;51.506;7.678;2023-03-01T16:17:41;3.70;;;3.25;;
37777;SDS011;23615;51.506;7.678;2023-03-01T16:20:06;4.30;;;3.10;;
37777;SDS011;23615;51.506;7.678;2023-03-01T16:22:32;3.55;;;2.90;;
37777;SDS011;23615;51.506;7.678;2023-03-01T16:24:58;3.13;;;2.67;;
37777;SDS011;23615;51.506;7.678;2023-03-01T16:27:23;3.93;;;3.10;;
37777;SDS011;23615;51.506;7.678;2023-03-01T16:29:48;3.30;;;2.90;;
37777;SDS011;23615;51.506;7.678;2023-03-01T16:32:14;3.13;;;2.83;;
37777;SDS011;23615;51.506;7.678;2023-03-01T16:34:39;3.33;;;3.03;;
37777;SDS011;23615;51.506;7.678;2023-03-01T16:37:04;3.63;;;2.40;;
37777;SDS011;23615;51.506;7.678;2023-03-01T16:39:30;2.90;;;2.20;;
37777;SDS011;23615;51.506;7.678;2023-03-01T16:41:55;3.47;;;2.40;;
37777;SDS011;23615;51.506;7.678;2023-03-01T16:44:20;2.33;;;2.13;;
37777;SDS011;23615;51.506;7.678;2023-03-01T16:46:45;3.07;;;2.77;;
37777;SDS011;23615;51.506;7.678;2023-03-01T16:49:11;3.87;;;2.73;;
37777;SDS011;23615;51.506;7.678;2023-03-01T16:51:36;2.33;;;2.07;;
37777;SDS011;23615;51.506;7.678;2023-03-01T16:54:01;3.50;;;2.50;;
37777;SDS011;23615;51.506;7.678;2023-03-01T16:56:29;2.38;;;2.00;;
37777;SDS011;23615;51.506;7.678;2023-03-01T16:58:56;2.90;;;2.25;;